Aviation Digital Data Service (ADDS)

Output produced by TAFs form (2223 UTC 24 June 2018)
found at http://www.aviationweather.gov/adds/tafs/
 
KSAV 242153Z 27007KT 10SM SCT060 36/22 A2996 RMK AO2 SLP144 T03610217
KSAV 241728Z 2418/2518 25009KT P6SM SCT035 
     FM242000 18009KT P6SM SCT035 
     FM250600 21006KT P6SM SCT150 
     FM251200 26006KT P6SM SCT150